sensor_id;sensor_type;location;lat;lon;timestamp;P1;durP1;ratioP1;P2;durP2;ratioP2
64907;SDS011;69061;52.236;5.188;2023-05-14T00:02:19;20.27;;;14.30;;
64907;SDS011;69061;52.236;5.188;2023-05-14T00:04:45;19.60;;;14.02;;
64907;SDS011;69061;52.236;5.188;2023-05-14T00:07:12;24.90;;;14.73;;
64907;SDS011;69061;52.236;5.188;2023-05-14T00:09:38;22.10;;;14.02;;
64907;SDS011;69061;52.236;5.188;2023-05-14T00:12:05;27.13;;;15.70;;
64907;SDS011;69061;52.236;5.188;2023-05-14T00:14:32;24.65;;;15.32;;
64907;SDS011;69061;52.236;5.188;2023-05-14T00:17:00;22.50;;;14.10;;
64907;SDS011;69061;52.236;5.188;2023-05-14T00:19:27;20.73;;;13.60;;
64907;SDS011;69061;52.236;5.188;2023-05-14T00:21:53;21.65;;;14.68;;
64907;SDS011;69061;52.236;5.188;2023-05-14T00:24:20;19.27;;;13.75;;
64907;SDS011;69061;52.236;5.188;2023-05-14T00:26:46;26.30;;;15.75;;
64907;SDS011;69061;52.236;5.188;2023-05-14T00:29:13;27.67;;;17.63;;
64907;SDS011;69061;52.236;5.188;2023-05-14T00:31:39;26.05;;;16.20;;
64907;SDS011;69061;52.236;5.188;2023-05-14T00:34:07;18.67;;;12.90;;
64907;SDS011;69061;52.236;5.188;2023-05-14T00:36:34;26.05;;;15.05;;
64907;SDS011;69061;52.236;5.188;2023-05-14T00:39:00;22.08;;;15.48;;
64907;SDS011;69061;52.236;5.188;2023-05-14T00:41:27;26.08;;;15.43;;
64907;SDS011;69061;52.236;5.188;2023-05-14T00:43:54;20.17;;;13.98;;
64907;SDS011;69061;52.236;5.188;2023-05-14T00:46:20;24.33;;;14.85;;
64907;SDS011;69061;52.236;5.188;2023-05-14T00:48:47;27.65;;;16.55;;
64907;SDS011;69061;52.236;5.188;2023-05-14T00:51:15;22.02;;;14.80;;
64907;SDS011;69061;52.236;5.188;2023-05-14T00:53:43;30.17;;;16.50;;
64907;SDS011;69061;52.236;5.188;2023-05-14T00:56:10;20.45;;;13.60;;
64907;SDS011;69061;52.236;5.188;2023-05-14T00:58:37;26.73;;;15.20;;
64907;SDS011;69061;52.236;5.188;2023-05-14T01:01:04;25.85;;;14.10;;
64907;SDS011;69061;52.236;5.188;2023-05-14T01:03:30;20.23;;;14.55;;
64907;SDS011;69061;52.236;5.188;2023-05-14T01:05:58;19.00;;;13.48;;
64907;SDS011;69061;52.236;5.188;2023-05-14T01:08:35;19.70;;;13.40;;
64907;SDS011;69061;52.236;5.188;2023-05-14T01:11:12;21.80;;;14.18;;
64907;SDS011;69061;52.236;5.188;2023-05-14T01:16:14;25.50;;;13.85;;
64907;SDS011;69061;52.236;5.188;2023-05-14T01:18:44;22.13;;;14.43;;
64907;SDS011;69061;52.236;5.188;2023-05-14T01:21:26;24.83;;;14.18;;
64907;SDS011;69061;52.236;5.188;2023-05-14T01:23:59;19.85;;;13.40;;
64907;SDS011;69061;52.236;5.188;2023-05-14T01:26:25;20.40;;;14.27;;
64907;SDS011;69061;52.236;5.188;2023-05-14T01:28:54;34.55;;;15.15;;
64907;SDS011;69061;52.236;5.188;2023-05-14T01:31:25;23.48;;;14.45;;
64907;SDS011;69061;52.236;5.188;2023-05-14T01:33:56;20.70;;;14.57;;
64907;SDS011;69061;52.236;5.188;2023-05-14T01:36:25;20.27;;;13.60;;
64907;SDS011;69061;52.236;5.188;2023-05-14T01:38:53;25.92;;;14.82;;
64907;SDS011;69061;52.236;5.188;2023-05-14T01:41:21;19.95;;;14.05;;
64907;SDS011;69061;52.236;5.188;2023-05-14T01:43:50;22.08;;;13.50;;
64907;SDS011;69061;52.236;5.188;2023-05-14T01:46:17;18.80;;;13.32;;
64907;SDS011;69061;52.236;5.188;2023-05-14T01:48:44;25.27;;;15.20;;
64907;SDS011;69061;52.236;5.188;2023-05-14T01:51:10;22.50;;;15.07;;
64907;SDS011;69061;52.236;5.188;2023-05-14T01:53:40;23.67;;;14.13;;
64907;SDS011;69061;52.236;5.188;2023-05-14T01:56:06;22.48;;;13.95;;
64907;SDS011;69061;52.236;5.188;2023-05-14T01:58:33;21.50;;;13.95;;
64907;SDS011;69061;52.236;5.188;2023-05-14T02:01:00;26.02;;;15.32;;
64907;SDS011;69061;52.236;5.188;2023-05-14T02:03:26;20.88;;;13.85;;
64907;SDS011;69061;52.236;5.188;2023-05-14T02:05:53;30.95;;;15.18;;
64907;SDS011;69061;52.236;5.188;2023-05-14T02:08:19;23.23;;;13.63;;
64907;SDS011;69061;52.236;5.188;2023-05-14T02:10:47;23.77;;;14.95;;
64907;SDS011;69061;52.236;5.188;2023-05-14T02:13:14;21.73;;;15.07;;
64907;SDS011;69061;52.236;5.188;2023-05-14T02:15:41;21.67;;;14.18;;
64907;SDS011;69061;52.236;5.188;2023-05-14T02:18:08;20.60;;;13.10;;
64907;SDS011;69061;52.236;5.188;2023-05-14T02:20:34;20.50;;;14.20;;
64907;SDS011;69061;52.236;5.188;2023-05-14T02:23:01;23.63;;;14.68;;
64907;SDS011;69061;52.236;5.188;2023-05-14T02:25:27;24.38;;;13.93;;
64907;SDS011;69061;52.236;5.188;2023-05-14T02:27:56;19.10;;;14.65;;
64907;SDS011;69061;52.236;5.188;2023-05-14T02:30:22;17.20;;;13.70;;
64907;SDS011;69061;52.236;5.188;2023-05-14T02:32:49;20.33;;;13.95;;
64907;SDS011;69061;52.236;5.188;2023-05-14T02:35:15;24.23;;;14.93;;
64907;SDS011;69061;52.236;5.188;2023-05-14T02:37:42;25.55;;;15.57;;
64907;SDS011;69061;52.236;5.188;2023-05-14T02:40:09;24.67;;;14.80;;
64907;SDS011;69061;52.236;5.188;2023-05-14T02:42:36;23.60;;;16.05;;
64907;SDS011;69061;52.236;5.188;2023-05-14T02:45:04;26.40;;;16.45;;
64907;SDS011;69061;52.236;5.188;2023-05-14T02:47:32;23.42;;;16.23;;
64907;SDS011;69061;52.236;5.188;2023-05-14T02:49:58;22.85;;;14.95;;
64907;SDS011;69061;52.236;5.188;2023-05-14T02:52:25;27.75;;;15.60;;
64907;SDS011;69061;52.236;5.188;2023-05-14T02:54:51;22.33;;;14.02;;
64907;SDS011;69061;52.236;5.188;2023-05-14T02:57:18;21.52;;;14.57;;
64907;SDS011;69061;52.236;5.188;2023-05-14T02:59:45;23.08;;;14.40;;
64907;SDS011;69061;52.236;5.188;2023-05-14T03:02:13;25.80;;;16.58;;
64907;SDS011;69061;52.236;5.188;2023-05-14T03:04:39;21.63;;;14.35;;
64907;SDS011;69061;52.236;5.188;2023-05-14T03:07:06;24.60;;;16.35;;
64907;SDS011;69061;52.236;5.188;2023-05-14T03:09:32;21.55;;;14.50;;
64907;SDS011;69061;52.236;5.188;2023-05-14T03:11:59;21.35;;;15.00;;
64907;SDS011;69061;52.236;5.188;2023-05-14T03:14:25;25.23;;;15.20;;
64907;SDS011;69061;52.236;5.188;2023-05-14T03:16:52;21.55;;;14.23;;
64907;SDS011;69061;52.236;5.188;2023-05-14T03:19:20;23.42;;;15.48;;
64907;SDS011;69061;52.236;5.188;2023-05-14T03:21:46;29.00;;;15.75;;
64907;SDS011;69061;52.236;5.188;2023-05-14T03:24:14;25.35;;;16.45;;
64907;SDS011;69061;52.236;5.188;2023-05-14T03:26:40;23.30;;;15.48;;
64907;SDS011;69061;52.236;5.188;2023-05-14T03:29:07;21.67;;;14.85;;
64907;SDS011;69061;52.236;5.188;2023-05-14T03:31:34;25.05;;;16.45;;
64907;SDS011;69061;52.236;5.188;2023-05-14T03:34:02;21.20;;;14.75;;
64907;SDS011;69061;52.236;5.188;2023-05-14T03:36:30;22.88;;;14.50;;
64907;SDS011;69061;52.236;5.188;2023-05-14T03:38:58;24.35;;;15.15;;
64907;SDS011;69061;52.236;5.188;2023-05-14T03:41:24;20.52;;;15.13;;
64907;SDS011;69061;52.236;5.188;2023-05-14T03:43:51;25.95;;;15.95;;
64907;SDS011;69061;52.236;5.188;2023-05-14T03:46:17;25.15;;;15.35;;
64907;SDS011;69061;52.236;5.188;2023-05-14T03:48:44;25.38;;;15.48;;
64907;SDS011;69061;52.236;5.188;2023-05-14T03:51:10;24.73;;;16.02;;
64907;SDS011;69061;52.236;5.188;2023-05-14T03:53:39;24.98;;;16.13;;
64907;SDS011;69061;52.236;5.188;2023-05-14T03:56:06;23.85;;;16.00;;
64907;SDS011;69061;52.236;5.188;2023-05-14T03:58:32;25.15;;;15.75;;
64907;SDS011;69061;52.236;5.188;2023-05-14T04:00:59;24.10;;;15.25;;
64907;SDS011;69061;52.236;5.188;2023-05-14T04:03:25;27.70;;;16.80;;
64907;SDS011;69061;52.236;5.188;2023-05-14T04:05:52;21.42;;;15.30;;
64907;SDS011;69061;52.236;5.188;2023-05-14T04:08:18;22.33;;;15.82;;
64907;SDS011;69061;52.236;5.188;2023-05-14T04:10:46;26.70;;;15.55;;
64907;SDS011;69061;52.236;5.188;2023-05-14T04:13:13;25.42;;;15.73;;
64907;SDS011;69061;52.236;5.188;2023-05-14T04:15:39;24.30;;;16.13;;
64907;SDS011;69061;52.236;5.188;2023-05-14T04:18:06;23.55;;;15.75;;
64907;SDS011;69061;52.236;5.188;2023-05-14T04:20:32;19.15;;;13.48;;
64907;SDS011;69061;52.236;5.188;2023-05-14T04:22:59;22.58;;;14.43;;
64907;SDS011;69061;52.236;5.188;2023-05-14T04:25:25;21.17;;;14.90;;
64907;SDS011;69061;52.236;5.188;2023-05-14T04:27:53;25.65;;;16.00;;
64907;SDS011;69061;52.236;5.188;2023-05-14T04:30:20;22.98;;;15.68;;
64907;SDS011;69061;52.236;5.188;2023-05-14T04:32:46;24.05;;;14.82;;
64907;SDS011;69061;52.236;5.188;2023-05-14T04:35:13;21.10;;;14.05;;
64907;SDS011;69061;52.236;5.188;2023-05-14T04:37:39;23.05;;;15.90;;
64907;SDS011;69061;52.236;5.188;2023-05-14T04:40:07;25.05;;;14.95;;
64907;SDS011;69061;52.236;5.188;2023-05-14T04:42:35;23.75;;;14.68;;
64907;SDS011;69061;52.236;5.188;2023-05-14T04:45:03;25.00;;;14.90;;
64907;SDS011;69061;52.236;5.188;2023-05-14T04:47:31;20.90;;;12.63;;
64907;SDS011;69061;52.236;5.188;2023-05-14T04:49:57;21.60;;;14.68;;
64907;SDS011;69061;52.236;5.188;2023-05-14T04:52:24;21.27;;;14.20;;
64907;SDS011;69061;52.236;5.188;2023-05-14T04:54:50;23.75;;;14.70;;
64907;SDS011;69061;52.236;5.188;2023-05-14T04:57:17;23.08;;;13.85;;
64907;SDS011;69061;52.236;5.188;2023-05-14T04:59:44;26.67;;;14.50;;
64907;SDS011;69061;52.236;5.188;2023-05-14T05:02:11;22.98;;;14.40;;
64907;SDS011;69061;52.236;5.188;2023-05-14T05:04:38;19.08;;;12.93;;
64907;SDS011;69061;52.236;5.188;2023-05-14T05:07:04;20.13;;;11.73;;
64907;SDS011;69061;52.236;5.188;2023-05-14T05:09:31;20.88;;;13.40;;
64907;SDS011;69061;52.236;5.188;2023-05-14T05:11:57;21.88;;;13.90;;
64907;SDS011;69061;52.236;5.188;2023-05-14T05:14:25;21.67;;;14.27;;
64907;SDS011;69061;52.236;5.188;2023-05-14T05:16:52;23.50;;;14.02;;
64907;SDS011;69061;52.236;5.188;2023-05-14T05:19:20;18.83;;;12.27;;
64907;SDS011;69061;52.236;5.188;2023-05-14T05:21:46;20.27;;;12.25;;
64907;SDS011;69061;52.236;5.188;2023-05-14T05:24:13;19.95;;;13.85;;
64907;SDS011;69061;52.236;5.188;2023-05-14T05:26:39;21.20;;;12.73;;
64907;SDS011;69061;52.236;5.188;2023-05-14T05:29:06;15.98;;;12.10;;
64907;SDS011;69061;52.236;5.188;2023-05-14T05:31:33;26.05;;;15.15;;
64907;SDS011;69061;52.236;5.188;2023-05-14T05:34:01;20.13;;;13.32;;
64907;SDS011;69061;52.236;5.188;2023-05-14T05:36:30;22.27;;;12.77;;
64907;SDS011;69061;52.236;5.188;2023-05-14T05:38:56;18.85;;;12.40;;
64907;SDS011;69061;52.236;5.188;2023-05-14T05:41:23;16.63;;;12.20;;
64907;SDS011;69061;52.236;5.188;2023-05-14T05:43:50;22.23;;;14.65;;
64907;SDS011;69061;52.236;5.188;2023-05-14T05:46:17;22.42;;;14.18;;
64907;SDS011;69061;52.236;5.188;2023-05-14T05:48:44;22.13;;;14.02;;
64907;SDS011;69061;52.236;5.188;2023-05-14T05:51:10;22.60;;;13.63;;
64907;SDS011;69061;52.236;5.188;2023-05-14T05:53:38;20.92;;;13.55;;
64907;SDS011;69061;52.236;5.188;2023-05-14T05:56:05;18.70;;;12.55;;
64907;SDS011;69061;52.236;5.188;2023-05-14T05:58:32;21.70;;;14.38;;
64907;SDS011;69061;52.236;5.188;2023-05-14T06:00:58;20.40;;;13.32;;
64907;SDS011;69061;52.236;5.188;2023-05-14T06:03:25;22.10;;;14.77;;
64907;SDS011;69061;52.236;5.188;2023-05-14T06:05:52;20.20;;;13.65;;
64907;SDS011;69061;52.236;5.188;2023-05-14T06:08:18;23.20;;;14.32;;
64907;SDS011;69061;52.236;5.188;2023-05-14T06:10:46;18.30;;;13.20;;
64907;SDS011;69061;52.236;5.188;2023-05-14T06:13:12;22.30;;;13.70;;
64907;SDS011;69061;52.236;5.188;2023-05-14T06:15:39;20.85;;;14.57;;
64907;SDS011;69061;52.236;5.188;2023-05-14T06:18:05;21.00;;;12.32;;
64907;SDS011;69061;52.236;5.188;2023-05-14T06:20:32;17.25;;;12.15;;
64907;SDS011;69061;52.236;5.188;2023-05-14T06:22:59;17.42;;;13.05;;
64907;SDS011;69061;52.236;5.188;2023-05-14T06:25:25;21.52;;;13.68;;
64907;SDS011;69061;52.236;5.188;2023-05-14T06:27:53;19.98;;;13.57;;
64907;SDS011;69061;52.236;5.188;2023-05-14T06:30:20;18.13;;;14.25;;
64907;SDS011;69061;52.236;5.188;2023-05-14T06:32:46;17.83;;;12.77;;
64907;SDS011;69061;52.236;5.188;2023-05-14T06:35:13;19.85;;;12.90;;
64907;SDS011;69061;52.236;5.188;2023-05-14T06:37:40;19.25;;;13.23;;
64907;SDS011;69061;52.236;5.188;2023-05-14T06:40:06;18.25;;;12.13;;
64907;SDS011;69061;52.236;5.188;2023-05-14T06:42:34;15.55;;;12.13;;
64907;SDS011;69061;52.236;5.188;2023-05-14T06:45:02;20.00;;;12.88;;
64907;SDS011;69061;52.236;5.188;2023-05-14T06:47:30;17.85;;;12.18;;
64907;SDS011;69061;52.236;5.188;2023-05-14T06:49:56;23.40;;;11.82;;
64907;SDS011;69061;52.236;5.188;2023-05-14T06:52:23;17.38;;;11.45;;
64907;SDS011;69061;52.236;5.188;2023-05-14T06:54:50;17.35;;;11.48;;
64907;SDS011;69061;52.236;5.188;2023-05-14T06:57:16;15.63;;;12.15;;
64907;SDS011;69061;52.236;5.188;2023-05-14T06:59:43;14.98;;;11.77;;
64907;SDS011;69061;52.236;5.188;2023-05-14T07:02:11;16.65;;;11.77;;
64907;SDS011;69061;52.236;5.188;2023-05-14T07:04:38;19.27;;;12.00;;
64907;SDS011;69061;52.236;5.188;2023-05-14T07:07:04;13.07;;;9.80;;
64907;SDS011;69061;52.236;5.188;2023-05-14T07:09:31;15.93;;;10.35;;
64907;SDS011;69061;52.236;5.188;2023-05-14T07:11:57;16.20;;;13.05;;
64907;SDS011;69061;52.236;5.188;2023-05-14T07:14:24;16.92;;;10.38;;
64907;SDS011;69061;52.236;5.188;2023-05-14T07:16:50;17.85;;;11.07;;
64907;SDS011;69061;52.236;5.188;2023-05-14T07:19:18;20.48;;;12.27;;
64907;SDS011;69061;52.236;5.188;2023-05-14T07:21:46;16.48;;;11.90;;
64907;SDS011;69061;52.236;5.188;2023-05-14T07:24:12;21.38;;;11.75;;
64907;SDS011;69061;52.236;5.188;2023-05-14T07:26:39;17.92;;;11.38;;
64907;SDS011;69061;52.236;5.188;2023-05-14T07:29:05;20.60;;;11.93;;
64907;SDS011;69061;52.236;5.188;2023-05-14T07:31:32;22.98;;;11.32;;
64907;SDS011;69061;52.236;5.188;2023-05-14T07:33:58;30.73;;;11.35;;
64907;SDS011;69061;52.236;5.188;2023-05-14T07:36:26;26.88;;;10.57;;
64907;SDS011;69061;52.236;5.188;2023-05-14T07:38:53;19.08;;;8.95;;
64907;SDS011;69061;52.236;5.188;2023-05-14T07:41:20;22.85;;;9.90;;
64907;SDS011;69061;52.236;5.188;2023-05-14T07:43:46;19.30;;;9.68;;
64907;SDS011;69061;52.236;5.188;2023-05-14T07:46:13;20.38;;;8.57;;
64907;SDS011;69061;52.236;5.188;2023-05-14T07:48:40;22.90;;;8.93;;
64907;SDS011;69061;52.236;5.188;2023-05-14T07:51:07;18.17;;;9.13;;
64907;SDS011;69061;52.236;5.188;2023-05-14T07:53:34;19.98;;;8.27;;
64907;SDS011;69061;52.236;5.188;2023-05-14T07:56:01;20.65;;;9.25;;
64907;SDS011;69061;52.236;5.188;2023-05-14T07:58:28;20.20;;;9.23;;
64907;SDS011;69061;52.236;5.188;2023-05-14T08:00:54;18.10;;;9.48;;
64907;SDS011;69061;52.236;5.188;2023-05-14T08:03:21;18.33;;;9.85;;
64907;SDS011;69061;52.236;5.188;2023-05-14T08:05:48;17.55;;;9.02;;
64907;SDS011;69061;52.236;5.188;2023-05-14T08:08:15;22.27;;;9.65;;
64907;SDS011;69061;52.236;5.188;2023-05-14T08:10:43;17.25;;;9.32;;
64907;SDS011;69061;52.236;5.188;2023-05-14T08:13:10;17.80;;;9.10;;
64907;SDS011;69061;52.236;5.188;2023-05-14T08:15:37;17.63;;;8.45;;
64907;SDS011;69061;52.236;5.188;2023-05-14T08:18:03;14.80;;;9.35;;
64907;SDS011;69061;52.236;5.188;2023-05-14T08:20:30;18.20;;;8.95;;
64907;SDS011;69061;52.236;5.188;2023-05-14T08:22:56;22.77;;;9.70;;
64907;SDS011;69061;52.236;5.188;2023-05-14T08:25:23;17.10;;;8.77;;
64907;SDS011;69061;52.236;5.188;2023-05-14T08:27:51;18.58;;;8.68;;
64907;SDS011;69061;52.236;5.188;2023-05-14T08:30:18;17.50;;;8.60;;
64907;SDS011;69061;52.236;5.188;2023-05-14T08:32:44;16.52;;;8.52;;
64907;SDS011;69061;52.236;5.188;2023-05-14T08:35:11;21.58;;;8.60;;
64907;SDS011;69061;52.236;5.188;2023-05-14T08:37:38;12.27;;;7.47;;
64907;SDS011;69061;52.236;5.188;2023-05-14T08:40:05;13.60;;;7.47;;
64907;SDS011;69061;52.236;5.188;2023-05-14T08:42:33;14.65;;;8.30;;
64907;SDS011;69061;52.236;5.188;2023-05-14T08:45:01;16.90;;;8.85;;
64907;SDS011;69061;52.236;5.188;2023-05-14T08:47:30;16.73;;;7.93;;
64907;SDS011;69061;52.236;5.188;2023-05-14T08:50:00;14.13;;;7.53;;
64907;SDS011;69061;52.236;5.188;2023-05-14T08:52:28;15.32;;;7.70;;
64907;SDS011;69061;52.236;5.188;2023-05-14T08:54:55;12.63;;;8.00;;
64907;SDS011;69061;52.236;5.188;2023-05-14T08:57:24;15.70;;;8.00;;
64907;SDS011;69061;52.236;5.188;2023-05-14T08:59:51;14.50;;;7.78;;
64907;SDS011;69061;52.236;5.188;2023-05-14T09:02:21;15.32;;;7.85;;
64907;SDS011;69061;52.236;5.188;2023-05-14T09:04:49;16.70;;;8.68;;
64907;SDS011;69061;52.236;5.188;2023-05-14T09:07:20;12.20;;;7.65;;
64907;SDS011;69061;52.236;5.188;2023-05-14T09:09:47;19.35;;;8.38;;
64907;SDS011;69061;52.236;5.188;2023-05-14T09:12:13;16.33;;;7.97;;
64907;SDS011;69061;52.236;5.188;2023-05-14T09:14:40;19.92;;;8.48;;
64907;SDS011;69061;52.236;5.188;2023-05-14T09:17:07;14.63;;;7.93;;
64907;SDS011;69061;52.236;5.188;2023-05-14T09:19:37;15.95;;;8.07;;
64907;SDS011;69061;52.236;5.188;2023-05-14T09:22:05;13.23;;;8.18;;
64907;SDS011;69061;52.236;5.188;2023-05-14T09:24:34;17.67;;;8.25;;
64907;SDS011;69061;52.236;5.188;2023-05-14T09:27:02;14.77;;;8.45;;
64907;SDS011;69061;52.236;5.188;2023-05-14T09:29:30;12.68;;;7.85;;
64907;SDS011;69061;52.236;5.188;2023-05-14T09:31:57;16.42;;;7.85;;
64907;SDS011;69061;52.236;5.188;2023-05-14T09:34:26;18.48;;;8.57;;
64907;SDS011;69061;52.236;5.188;2023-05-14T09:36:56;16.88;;;7.82;;
64907;SDS011;69061;52.236;5.188;2023-05-14T09:39:24;15.95;;;8.15;;
64907;SDS011;69061;52.236;5.188;2023-05-14T09:41:51;16.15;;;7.55;;
64907;SDS011;69061;52.236;5.188;2023-05-14T09:44:18;14.40;;;7.80;;
64907;SDS011;69061;52.236;5.188;2023-05-14T09:46:46;12.23;;;7.80;;
64907;SDS011;69061;52.236;5.188;2023-05-14T09:49:13;14.10;;;7.75;;
64907;SDS011;69061;52.236;5.188;2023-05-14T09:51:40;21.30;;;7.45;;
64907;SDS011;69061;52.236;5.188;2023-05-14T09:54:08;10.73;;;7.00;;
64907;SDS011;69061;52.236;5.188;2023-05-14T09:56:36;15.32;;;7.50;;
64907;SDS011;69061;52.236;5.188;2023-05-14T09:59:03;15.35;;;7.68;;
64907;SDS011;69061;52.236;5.188;2023-05-14T10:01:30;16.00;;;8.10;;
64907;SDS011;69061;52.236;5.188;2023-05-14T10:03:57;12.00;;;7.85;;
64907;SDS011;69061;52.236;5.188;2023-05-14T10:06:24;16.90;;;7.78;;
64907;SDS011;69061;52.236;5.188;2023-05-14T10:08:53;15.27;;;8.20;;
64907;SDS011;69061;52.236;5.188;2023-05-14T10:11:24;15.32;;;8.00;;
64907;SDS011;69061;52.236;5.188;2023-05-14T10:13:54;20.83;;;8.48;;
64907;SDS011;69061;52.236;5.188;2023-05-14T10:16:27;13.15;;;8.05;;
64907;SDS011;69061;52.236;5.188;2023-05-14T10:18:59;13.05;;;7.38;;
64907;SDS011;69061;52.236;5.188;2023-05-14T10:21:31;16.20;;;7.22;;
64907;SDS011;69061;52.236;5.188;2023-05-14T10:24:00;15.63;;;7.10;;
64907;SDS011;69061;52.236;5.188;2023-05-14T10:26:29;17.75;;;8.07;;
64907;SDS011;69061;52.236;5.188;2023-05-14T10:28:57;18.52;;;7.55;;
64907;SDS011;69061;52.236;5.188;2023-05-14T10:31:33;12.00;;;7.68;;
64907;SDS011;69061;52.236;5.188;2023-05-14T10:36:57;14.70;;;7.88;;
64907;SDS011;69061;52.236;5.188;2023-05-14T10:39:38;22.33;;;8.48;;
64907;SDS011;69061;52.236;5.188;2023-05-14T10:42:14;14.35;;;7.47;;
64907;SDS011;69061;52.236;5.188;2023-05-14T10:47:30;12.48;;;7.40;;
64907;SDS011;69061;52.236;5.188;2023-05-14T10:49:57;10.50;;;6.60;;
64907;SDS011;69061;52.236;5.188;2023-05-14T10:52:25;17.75;;;8.02;;
64907;SDS011;69061;52.236;5.188;2023-05-14T10:54:52;13.23;;;8.13;;
64907;SDS011;69061;52.236;5.188;2023-05-14T10:57:22;13.35;;;7.47;;
64907;SDS011;69061;52.236;5.188;2023-05-14T10:59:50;14.20;;;7.85;;
64907;SDS011;69061;52.236;5.188;2023-05-14T11:02:19;14.07;;;7.65;;
64907;SDS011;69061;52.236;5.188;2023-05-14T11:04:51;14.20;;;7.72;;
64907;SDS011;69061;52.236;5.188;2023-05-14T11:07:23;14.60;;;7.35;;
64907;SDS011;69061;52.236;5.188;2023-05-14T11:09:54;16.23;;;7.97;;
64907;SDS011;69061;52.236;5.188;2023-05-14T11:12:27;15.63;;;8.07;;
64907;SDS011;69061;52.236;5.188;2023-05-14T11:14:55;11.82;;;6.93;;
64907;SDS011;69061;52.236;5.188;2023-05-14T11:17:23;15.75;;;8.35;;
64907;SDS011;69061;52.236;5.188;2023-05-14T11:19:50;16.02;;;7.90;;
64907;SDS011;69061;52.236;5.188;2023-05-14T11:22:20;12.13;;;6.80;;
64907;SDS011;69061;52.236;5.188;2023-05-14T11:24:49;15.45;;;7.43;;
64907;SDS011;69061;52.236;5.188;2023-05-14T11:27:16;14.07;;;7.82;;
64907;SDS011;69061;52.236;5.188;2023-05-14T11:29:44;16.00;;;7.97;;
64907;SDS011;69061;52.236;5.188;2023-05-14T11:32:12;16.73;;;7.78;;
64907;SDS011;69061;52.236;5.188;2023-05-14T11:34:39;12.00;;;7.60;;
64907;SDS011;69061;52.236;5.188;2023-05-14T11:37:09;14.13;;;7.82;;
64907;SDS011;69061;52.236;5.188;2023-05-14T11:39:36;11.88;;;7.22;;
64907;SDS011;69061;52.236;5.188;2023-05-14T11:42:04;10.52;;;7.38;;
64907;SDS011;69061;52.236;5.188;2023-05-14T11:44:38;15.10;;;8.10;;
64907;SDS011;69061;52.236;5.188;2023-05-14T11:47:07;17.60;;;7.97;;
64907;SDS011;69061;52.236;5.188;2023-05-14T11:49:34;13.35;;;7.82;;
64907;SDS011;69061;52.236;5.188;2023-05-14T11:52:02;16.70;;;8.00;;
64907;SDS011;69061;52.236;5.188;2023-05-14T11:54:30;16.42;;;8.43;;
64907;SDS011;69061;52.236;5.188;2023-05-14T11:56:58;10.20;;;7.93;;
64907;SDS011;69061;52.236;5.188;2023-05-14T11:59:27;13.65;;;8.20;;
64907;SDS011;69061;52.236;5.188;2023-05-14T12:01:55;14.23;;;7.93;;
64907;SDS011;69061;52.236;5.188;2023-05-14T12:04:23;18.25;;;7.93;;
64907;SDS011;69061;52.236;5.188;2023-05-14T12:06:50;10.85;;;6.93;;
64907;SDS011;69061;52.236;5.188;2023-05-14T12:09:17;15.82;;;8.38;;
64907;SDS011;69061;52.236;5.188;2023-05-14T12:11:48;14.00;;;7.47;;
64907;SDS011;69061;52.236;5.188;2023-05-14T12:14:16;17.17;;;9.18;;
64907;SDS011;69061;52.236;5.188;2023-05-14T12:16:44;11.35;;;7.00;;
64907;SDS011;69061;52.236;5.188;2023-05-14T12:19:13;17.42;;;8.13;;
64907;SDS011;69061;52.236;5.188;2023-05-14T12:21:42;12.82;;;7.90;;
64907;SDS011;69061;52.236;5.188;2023-05-14T12:24:11;15.18;;;7.55;;
64907;SDS011;69061;52.236;5.188;2023-05-14T12:26:38;18.80;;;8.15;;
64907;SDS011;69061;52.236;5.188;2023-05-14T12:29:05;13.88;;;7.82;;
64907;SDS011;69061;52.236;5.188;2023-05-14T12:31:32;13.25;;;7.30;;
64907;SDS011;69061;52.236;5.188;2023-05-14T12:34:00;12.43;;;7.38;;
64907;SDS011;69061;52.236;5.188;2023-05-14T12:36:27;13.50;;;7.85;;
64907;SDS011;69061;52.236;5.188;2023-05-14T12:38:59;16.85;;;8.10;;
64907;SDS011;69061;52.236;5.188;2023-05-14T12:41:27;12.30;;;8.23;;
64907;SDS011;69061;52.236;5.188;2023-05-14T12:43:54;11.07;;;7.00;;
64907;SDS011;69061;52.236;5.188;2023-05-14T12:46:21;11.32;;;7.28;;
64907;SDS011;69061;52.236;5.188;2023-05-14T12:48:48;14.48;;;7.43;;
64907;SDS011;69061;52.236;5.188;2023-05-14T12:51:15;12.20;;;7.15;;
64907;SDS011;69061;52.236;5.188;2023-05-14T12:53:42;16.00;;;8.52;;
64907;SDS011;69061;52.236;5.188;2023-05-14T12:56:10;14.60;;;8.13;;
64907;SDS011;69061;52.236;5.188;2023-05-14T12:58:37;17.30;;;7.75;;
64907;SDS011;69061;52.236;5.188;2023-05-14T13:01:03;12.98;;;7.53;;
64907;SDS011;69061;52.236;5.188;2023-05-14T13:03:30;13.60;;;8.63;;
64907;SDS011;69061;52.236;5.188;2023-05-14T13:05:57;14.48;;;8.40;;
64907;SDS011;69061;52.236;5.188;2023-05-14T13:08:24;10.65;;;6.90;;
64907;SDS011;69061;52.236;5.188;2023-05-14T13:10:51;15.57;;;8.07;;
64907;SDS011;69061;52.236;5.188;2023-05-14T13:13:19;13.07;;;7.80;;
64907;SDS011;69061;52.236;5.188;2023-05-14T13:15:46;11.02;;;7.25;;
64907;SDS011;69061;52.236;5.188;2023-05-14T13:18:13;13.60;;;8.02;;
64907;SDS011;69061;52.236;5.188;2023-05-14T13:20:40;10.60;;;7.28;;
64907;SDS011;69061;52.236;5.188;2023-05-14T13:23:07;14.25;;;7.75;;
64907;SDS011;69061;52.236;5.188;2023-05-14T13:25:34;13.82;;;7.68;;
64907;SDS011;69061;52.236;5.188;2023-05-14T13:28:01;11.00;;;7.60;;
64907;SDS011;69061;52.236;5.188;2023-05-14T13:30:29;12.70;;;7.93;;
64907;SDS011;69061;52.236;5.188;2023-05-14T13:32:56;14.07;;;7.43;;
64907;SDS011;69061;52.236;5.188;2023-05-14T13:35:23;9.43;;;7.45;;
64907;SDS011;69061;52.236;5.188;2023-05-14T13:37:50;10.93;;;8.20;;
64907;SDS011;69061;52.236;5.188;2023-05-14T13:40:16;15.63;;;7.38;;
64907;SDS011;69061;52.236;5.188;2023-05-14T13:42:43;11.45;;;7.68;;
64907;SDS011;69061;52.236;5.188;2023-05-14T13:45:09;13.43;;;8.15;;
64907;SDS011;69061;52.236;5.188;2023-05-14T13:47:39;14.18;;;7.63;;
64907;SDS011;69061;52.236;5.188;2023-05-14T13:50:06;12.50;;;7.88;;
64907;SDS011;69061;52.236;5.188;2023-05-14T13:52:33;11.45;;;7.45;;
64907;SDS011;69061;52.236;5.188;2023-05-14T13:55:00;11.73;;;7.25;;
64907;SDS011;69061;52.236;5.188;2023-05-14T13:57:26;17.35;;;8.50;;
64907;SDS011;69061;52.236;5.188;2023-05-14T13:59:53;15.95;;;8.35;;
64907;SDS011;69061;52.236;5.188;2023-05-14T14:02:19;15.75;;;7.63;;
64907;SDS011;69061;52.236;5.188;2023-05-14T14:04:47;13.73;;;7.45;;
64907;SDS011;69061;52.236;5.188;2023-05-14T14:07:14;14.15;;;7.47;;
64907;SDS011;69061;52.236;5.188;2023-05-14T14:09:40;12.60;;;7.85;;
64907;SDS011;69061;52.236;5.188;2023-05-14T14:12:07;15.93;;;8.38;;
64907;SDS011;69061;52.236;5.188;2023-05-14T14:14:34;16.30;;;8.10;;
64907;SDS011;69061;52.236;5.188;2023-05-14T14:17:01;15.10;;;8.30;;
64907;SDS011;69061;52.236;5.188;2023-05-14T14:19:27;14.25;;;8.73;;
64907;SDS011;69061;52.236;5.188;2023-05-14T14:21:55;18.58;;;9.15;;
64907;SDS011;69061;52.236;5.188;2023-05-14T14:24:22;14.13;;;7.63;;
64907;SDS011;69061;52.236;5.188;2023-05-14T14:26:48;15.63;;;8.50;;
64907;SDS011;69061;52.236;5.188;2023-05-14T14:29:15;19.55;;;8.65;;
64907;SDS011;69061;52.236;5.188;2023-05-14T14:31:41;8.45;;;7.43;;
64907;SDS011;69061;52.236;5.188;2023-05-14T14:34:08;16.83;;;9.68;;
64907;SDS011;69061;52.236;5.188;2023-05-14T14:36:35;19.92;;;10.32;;
64907;SDS011;69061;52.236;5.188;2023-05-14T14:39:03;15.95;;;8.77;;